• Join FlightAware (Why Join?)
  • Login
  • US Flag 
07:09AM EDT


 

Airport Tracker/Info


-or-


 

Live Flight TrackerFlight Track Log ✈ EJA641 ✈ 01-May-2013 ✈ KAPF - KUGN

Flight Track Log - Related Links

Times and Time Zones

All times are in EDT time to prevent confusion due to time zone crossing. See the EJA641 flight status page for this flight to view local times or setup timezone preferences in your user account.

Time Position Orientation Groundspeed Altitude Reporting Facility
EDT Latitude Longitude Course Direction KTS MPH feet Rate Location/Type
11:14AM 26.1453 -81.6681 North 200 230 6,100  Level Miami Center
11:15AM 26.2142 -81.6708 358° North 167 192 9,000 2,100 Climbing Miami Center
11:16AM 26.2994 -81.6789 355° North 250 288 10,300 1,800 Climbing Miami Center
11:17AM 26.3911 -81.6872 355° North 293 337 12,700 2,400 Climbing Miami Center
11:18AM 26.7057 -81.7500 North  Level FlightAware Approximate
11:18AM 26.4869 -81.6958 355° North 319 367 15,200  Level Miami Center
11:19AM 26.8172 -81.7499 North  Level FlightAware Approximate
11:19AM 26.5658 -81.7036 355° North 328 377 17,200  Level Miami Center
11:20AM 26.6681 -81.7125 356° North 328 377 19,300 1,980 Climbing Miami Center
11:21AM 26.7575 -81.7208 355° North 329 379 21,200 1,800 Climbing Miami Center
11:22AM 26.8492 -81.7269 357° North 324 373 22,900 900 Climbing Miami Center
11:23AM 26.9386 -81.7353 355° North 347 399 23,000 300 Climbing Miami Center
11:24AM 27.0467 -81.7517 352° North 373 429 23,500 1,080 Climbing Miami Center
11:25AM 27.1606 -81.7750 350° North 383 441 25,200 1,500 Climbing Miami Center
11:26AM 27.2639 -81.7467 14° North 377 434 26,600 900 Climbing Miami Center
11:27AM 27.3672 -81.7136 16° North 378 435 27,000 600 Climbing Miami Center
11:28AM 27.4642 -81.6828 16° North 392 451 27,900 960 Climbing Miami Center
11:29AM 27.5675 -81.6519 15° North 387 445 29,000 1,200 Climbing Miami Center
11:30AM 27.6814 -81.6144 16° North 382 440 30,400 960 Climbing Miami Center
11:31AM 27.7847 -81.5814 16° North 382 440 31,000 300 Climbing Miami Center
11:32AM 27.8944 -81.5483 15° North 392 451 31,000  Level Miami Center
11:33AM 28.0083 -81.5083 17° North 405 466 31,100 600 Climbing Miami Center
11:34AM 28.1053 -81.4769 16° North 405 466 32,200 1,200 Climbing Miami Center
11:35AM 28.2128 -81.4436 15° North 400 460 33,600 1,380 Climbing Miami Center
11:35AM 28.2567 -81.4456 358° North 396 456 34,200 1,380 Climbing Jacksonville Center
11:36AM 28.3611 -81.4678 349° North 385 443 35,600 1,440 Climbing Jacksonville Center
11:37AM 28.4575 -81.4925 347° North 366 421 37,100 1,200 Climbing Jacksonville Center
11:38AM 28.5558 -81.5122 350° North 360 414 38,100 900 Climbing Jacksonville Center
11:39AM 28.6542 -81.5369 348° North 354 407 38,900 660 Climbing Jacksonville Center
11:40AM 28.7586 -81.5592 349° North 364 419 39,500 600 Climbing Jacksonville Center
11:41AM 28.8675 -81.5839 349° North 377 434 40,100 600 Climbing Jacksonville Center
11:42AM 28.9761 -81.6086 349° North 383 441 40,700 420 Climbing Jacksonville Center
11:43AM 29.0850 -81.6308 350° North 393 452 41,000 120 Climbing Jacksonville Center
11:44AM 29.2042 -81.6581 349° North 408 470 41,000  Level Jacksonville Center
11:45AM 29.3319 -81.6919 347° North 416 479 41,000  Level Jacksonville Center
11:46AM 29.4511 -81.7169 350° North 422 486 41,000  Level Jacksonville Center
11:47AM 29.5683 -81.7464 348° North 428 493 41,000  Level Jacksonville Center
11:48AM 29.6875 -81.7714 350° North 428 493 41,000  Level Jacksonville Center
11:49AM 29.8047 -81.7986 349° North 428 493 41,000  Level Jacksonville Center
11:50AM 29.9217 -81.8261 348° North 428 493 41,000  Level Jacksonville Center
11:51AM 30.0408 -81.8489 351° North 428 493 41,000  Level Jacksonville Center
11:52AM 30.1581 -81.8764 349° North 428 493 41,000  Level Jacksonville Center
11:53AM 30.2669 -81.9136 344° North 428 493 41,000  Level Jacksonville Center
11:54AM 30.3758 -81.9583 340° North 415 478 41,000  Level Jacksonville Center
11:55AM 30.4828 -82.0031 340° North 413 475 41,000  Level Jacksonville Center
11:56AM 30.5811 -82.0506 337° Northwest 409 471 41,000  Level Jacksonville Center
11:57AM 30.6878 -82.0978 339° North 414 476 41,000  Level Jacksonville Center
11:58AM 30.7947 -82.1428 340° North 414 476 41,000  Level Jacksonville Center
11:59AM 30.9014 -82.1881 340° North 414 476 41,000  Level Jacksonville Center
12:00PM 31.0081 -82.2358 339° North 414 476 41,000  Level Jacksonville Center
12:01PM 31.1147 -82.2836 339° North 414 476 41,000  Level Jacksonville Center
12:02PM 31.2217 -82.3289 340° North 414 476 41,000  Level Jacksonville Center
12:03PM 31.3303 -82.3769 339° North 414 476 41,000  Level Jacksonville Center
12:05PM 31.5467 -82.4647 341° North 416 479 41,000  Level Atlanta Center
12:06PM 31.6517 -82.5117 339° North 411 473 41,000  Level Atlanta Center
12:07PM 31.7606 -82.5586 340° North 411 473 41,000  Level Atlanta Center
12:08PM 31.8656 -82.6058 339° North 411 473 41,000  Level Atlanta Center
12:09PM 31.9747 -82.6531 340° North 411 473 41,000  Level Atlanta Center
12:10PM 32.0817 -82.7006 339° North 411 473 41,000  Level Atlanta Center
12:11PM 32.1886 -82.7478 340° North 411 473 41,000  Level Atlanta Center
12:12PM 32.2975 -82.7956 340° North 411 473 41,000  Level Atlanta Center
12:13PM 32.4044 -82.8433 339° North 411 473 41,000  Level Atlanta Center
12:14PM 32.5094 -82.8911 339° North 411 473 41,000  Level Atlanta Center
12:15PM 32.6017 -82.9342 339° North 411 473 41,000  Level Atlanta Center
12:16PM 32.7253 -82.9894 339° North 417 480 41,000  Level Atlanta Center
12:17PM 32.8364 -83.0400 339° North 404 465 41,000  Level Atlanta Center
12:18PM 32.9453 -83.0933 338° Northwest 404 465 41,000  Level Atlanta Center
12:19PM 33.0478 -83.1367 340° North 404 465 41,000  Level Atlanta Center
12:20PM 33.1567 -83.1828 340° North 404 465 41,000  Level Atlanta Center
12:21PM 33.2614 -83.2289 340° North 404 465 41,000  Level Atlanta Center
12:22PM 33.3681 -83.2778 339° North 404 465 41,000  Level Atlanta Center
12:23PM 33.4728 -83.3267 339° North 399 459 41,000  Level Atlanta Center
12:24PM 33.5794 -83.3731 340° North 399 459 41,000  Level Atlanta Center
12:25PM 33.6819 -83.4222 338° Northwest 404 465 41,000  Level Atlanta Center
12:26PM 33.7889 -83.4714 339° North 399 459 41,000  Level Atlanta Center
12:27PM 33.8911 -83.5183 339° North 399 459 41,000  Level Atlanta Center
12:28PM 34.0000 -83.5653 340° North 394 453 41,000  Level Atlanta Center
12:29PM 34.1025 -83.6147 338° Northwest 394 453 41,000  Level Atlanta Center
12:30PM 34.2047 -83.6619 339° North 394 453 41,000  Level Atlanta Center
12:31PM 34.3094 -83.7119 338° Northwest 394 453 41,000  Level Atlanta Center
12:32PM 34.4033 -83.7569 338° Northwest 394 453 41,000  Level Atlanta Center
12:33PM 34.5078 -83.8019 340° North 394 453 41,000  Level Atlanta Center
12:34PM 34.6164 -83.8544 338° Northwest 399 459 41,000  Level Atlanta Center
12:35PM 34.7272 -83.9097 338° Northwest 393 452 41,000  Level Atlanta Center
12:36PM 34.8314 -83.9578 339° North 393 452 41,000  Level Atlanta Center
12:37PM 34.9358 -84.0108 337° Northwest 393 452 41,000  Level Atlanta Center
12:38PM 35.0403 -84.0592 339° North 393 452 41,000  Level Atlanta Center
12:39PM 35.1444 -84.1100 338° Northwest 393 452 41,000  Level Atlanta Center
12:40PM 35.2508 -84.1583 340° North 393 452 41,000  Level Atlanta Center
12:41PM 35.3531 -84.2094 338° Northwest 393 452 41,000  Level Atlanta Center
12:42PM 35.4572 -84.2556 340° North 393 452 41,000  Level Atlanta Center
12:43PM 35.5594 -84.3067 338° Northwest 393 452 41,000  Level Atlanta Center
12:44PM 35.6636 -84.3583 338° Northwest 393 452 41,000  Level Atlanta Center
12:45PM 35.7678 -84.4072 339° North 393 452 41,000  Level Atlanta Center
12:46PM 35.8697 -84.4564 339° North 393 452 41,000  Level Atlanta Center
12:47PM 35.9656 -84.5006 340° North 393 452 41,000  Level Atlanta Center
12:48PM 36.0678 -84.5525 338° Northwest 393 452 41,000  Level Atlanta Center
12:51PM 36.3169 -84.6750 338° Northwest 402 463 41,000  Level Indianapolis Center
12:52PM 36.4214 -84.7269 338° Northwest 405 466 41,000  Level Indianapolis Center
12:53PM 36.5283 -84.7789 339° North 411 473 41,000  Level Indianapolis Center
12:54PM 36.6342 -84.8364 336° Northwest 414 476 41,000  Level Indianapolis Center
12:55PM 36.7411 -84.8942 337° Northwest 418 481 41,000  Level Indianapolis Center
12:56PM 36.8703 -84.9653 336° Northwest 425 489 41,000  Level Indianapolis Center
12:57PM 36.9781 -85.0242 336° Northwest 423 487 41,000  Level Indianapolis Center
12:58PM 37.0797 -85.0772 337° Northwest 417 480 41,000  Level Indianapolis Center
12:59PM 37.2058 -85.1461 336° Northwest 420 483 41,000  Level Indianapolis Center
01:00PM 37.3150 -85.2053 337° Northwest 426 490 41,000  Level Indianapolis Center
01:01PM 37.4239 -85.2644 337° Northwest 425 489 41,000  Level Indianapolis Center
01:02PM 37.5319 -85.3247 336° Northwest 424 488 41,000  Level Indianapolis Center
01:03PM 37.6392 -85.3861 336° Northwest 423 487 41,000  Level Indianapolis Center
01:04PM 37.7467 -85.4456 336° Northwest 421 484 41,000  Level Indianapolis Center
01:05PM 37.8711 -85.5125 337° Northwest 425 489 41,000  Level Indianapolis Center
01:06PM 37.9775 -85.5717 336° Northwest 420 483 41,000  Level Indianapolis Center
01:07PM 38.0822 -85.6300 336° Northwest 413 475 41,000  Level Indianapolis Center
01:08PM 38.1872 -85.6886 336° Northwest 413 475 41,000  Level Indianapolis Center
01:09PM 38.2914 -85.7478 336° Northwest 410 472 41,000  Level Indianapolis Center
01:10PM 38.3967 -85.8078 336° Northwest 413 475 41,000  Level Indianapolis Center
01:11PM 38.5219 -85.8783 336° Northwest 410 472 41,000  Level Indianapolis Center
01:12PM 38.6278 -85.9383 336° Northwest 415 478 41,000  Level Indianapolis Center
01:13PM 38.7322 -85.9975 336° Northwest 411 473 41,000  Level Indianapolis Center
01:14PM 38.8392 -86.0589 336° Northwest 419 482 41,000  Level Indianapolis Center
01:16PM 38.9581 -86.1269 336° Northwest 414 476 41,000  Level Indianapolis Center
01:17PM 39.0647 -86.1881 336° Northwest 415 478 41,000  Level Indianapolis Center
01:18PM 39.1708 -86.2506 335° Northwest 416 479 41,000  Level Indianapolis Center
01:19PM 39.2769 -86.3117 336° Northwest 414 476 41,000  Level Indianapolis Center
01:20PM 39.3817 -86.3728 336° Northwest 411 473 41,000  Level Indianapolis Center
01:21PM 39.4858 -86.4344 335° Northwest 408 470 41,000  Level Indianapolis Center
01:22PM 39.5914 -86.4964 336° Northwest 408 470 41,000  Level Indianapolis Center
01:23PM 39.6978 -86.5578 336° Northwest 409 471 41,000  Level Indianapolis Center
01:24PM 39.8031 -86.6197 336° Northwest 407 468 41,000  Level Indianapolis Center
01:25PM 39.9083 -86.6814 336° Northwest 409 471 41,000  Level Indianapolis Center
01:26PM 40.0306 -86.7539 336° Northwest 410 472 41,000  Level Indianapolis Center
01:27PM 40.1347 -86.8156 336° Northwest 409 471 41,000  Level Indianapolis Center
01:28PM 40.2217 -86.8689 335° Northwest 410 472 41,000 -240 Level Chicago Center
01:29PM 40.3267 -86.9306 336° Northwest 411 473 40,600 -780 Descending Chicago Center
01:30PM 40.4311 -86.9944 335° Northwest 410 472 39,500 -780 Descending Chicago Center
01:31PM 40.5342 -87.0567 335° Northwest 407 468 39,000 -300 Descending Chicago Center
01:32PM 40.6481 -87.0811 351° North 414 476 39,000 -540 Level Chicago Center
01:33PM 40.7767 -87.0975 354° North 414 476 38,000 -1,500 Descending Chicago Center
01:34PM 40.8886 -87.1111 355° North 407 468 35,900 -2,280 Descending Chicago Center
01:35PM 40.9994 -87.1242 355° North 404 465 33,400 -1,440 Descending Chicago Center
01:36PM 41.1092 -87.1389 354° North 401 461 33,000 -240 Descending Chicago Center
01:37PM 41.2175 -87.1533 354° North 398 458 33,000 -1,260 Level Chicago Center
01:38PM 41.3514 -87.1719 354° North 404 465 30,400 -2,400 Descending Chicago Center
01:39PM 41.4706 -87.1869 355° North 421 484 28,100 -2,280 Descending Chicago Center
01:40PM 41.5939 -87.2036 354° North 443 510 25,800 -2,040 Descending Chicago Center
01:41PM 41.7147 -87.2189 355° North 443 510 24,000 -900 Descending Chicago Center
01:42PM 41.8358 -87.2350 354° North 442 509 24,000 -180 Level Chicago Center
01:43PM 41.9781 -87.2544 354° North 434 499 23,700 -600 Descending Chicago Center
01:44PM 42.0939 -87.2689 355° North 424 488 22,800 -1,260 Descending Chicago Center
01:45PM 42.2078 -87.2836 355° North 414 476 21,100 -2,040 Descending Chicago Center
01:46PM 42.3175 -87.2986 354° North 402 463 18,700 -2,460 Descending Chicago Center
01:47PM 42.4367 -87.3142 354° North 398 458 16,100 -2,460 Descending Chicago Center
01:48PM 42.5467 -87.3283 355° North 397 457 13,600 -2,640 Descending Chicago Center
01:49PM 42.6483 -87.3661 345° North 389 448 10,700 -2,700 Descending Chicago Center
01:50PM 42.6850 -87.4756 295° West 307 353 8,200 -2,400 Descending Chicago Center
01:51PM 42.6708 -87.5692 258° West 264 304 5,800 -2,040 Descending Chicago Center
01:52PM 42.6225 -87.6503 231° Southwest 251 289 4,000 -900 Descending Chicago Center
01:53PM 42.5692 -87.6844 205° Southwest 216 249 4,000 -300 Level Chicago Center
01:55PM 42.5189 -87.7281 213° Southwest 214 246 3,400 -600 Descending Chicago Center
01:56PM 42.4658 -87.7744 213° Southwest 210 242 2,800 -600 Descending Chicago Center
01:59PM 42.4167 -87.8667 206° Southwest  Level FlightAware Approximate